createdAt,value
2016-08-31T00:00:51.555Z,-51
2016-08-31T00:01:51.968Z,-52
2016-08-31T00:02:52.589Z,-51
2016-08-31T00:03:51.434Z,-51
2016-08-31T00:04:51.396Z,-52
2016-08-31T00:05:51.408Z,-52
2016-08-31T00:06:51.403Z,-51
2016-08-31T00:07:51.409Z,-50
2016-08-31T00:08:51.403Z,-50
2016-08-31T00:09:51.410Z,-51
2016-08-31T00:10:51.443Z,-51
2016-08-31T00:11:51.480Z,-52
2016-08-31T00:12:51.412Z,-51
2016-08-31T00:13:51.421Z,-51
2016-08-31T00:14:51.420Z,-51
2016-08-31T00:15:51.433Z,-52
2016-08-31T00:16:51.389Z,-52
2016-08-31T00:17:51.434Z,-51
2016-08-31T00:18:51.390Z,-50
2016-08-31T00:19:51.404Z,-51
2016-08-31T00:20:51.387Z,-51
2016-08-31T00:21:51.420Z,-50
2016-08-31T00:22:51.414Z,-50
2016-08-31T00:23:51.423Z,-53
2016-08-31T00:24:52.630Z,-52
2016-08-31T00:25:51.479Z,-52
2016-08-31T00:26:51.438Z,-53
2016-08-31T00:27:51.448Z,-51
2016-08-31T00:28:51.440Z,-51
2016-08-31T00:29:51.448Z,-51
2016-08-31T00:30:51.413Z,-51
2016-08-31T00:31:51.428Z,-51
2016-08-31T00:32:51.421Z,-50
2016-08-31T00:33:51.390Z,-51
2016-08-31T00:34:51.421Z,-51
2016-08-31T00:35:51.405Z,-51
2016-08-31T00:36:51.426Z,-51
2016-08-31T00:37:51.435Z,-51
2016-08-31T00:38:51.419Z,-51
2016-08-31T00:39:51.420Z,-51
2016-08-31T00:40:51.465Z,-51
2016-08-31T00:41:51.488Z,-50
2016-08-31T00:42:51.539Z,-50
2016-08-31T00:43:51.497Z,-50
2016-08-31T00:44:51.482Z,-49
2016-08-31T00:45:51.471Z,-51
2016-08-31T00:46:51.537Z,-50
2016-08-31T00:47:51.430Z,-51
2016-08-31T00:48:51.467Z,-50
2016-08-31T00:49:51.536Z,-52
2016-08-31T00:50:51.480Z,-52
2016-08-31T00:51:51.466Z,-52
2016-08-31T00:52:51.488Z,-52
2016-08-31T00:53:51.527Z,-53
2016-08-31T00:54:51.428Z,-52
2016-08-31T00:55:51.533Z,-53
2016-08-31T00:56:51.497Z,-52
2016-08-31T00:57:51.455Z,-52
2016-08-31T00:58:51.601Z,-50
2016-08-31T00:59:51.447Z,-51
2016-08-31T01:00:51.467Z,-52
2016-08-31T01:01:51.448Z,-51
2016-08-31T01:02:51.458Z,-50
2016-08-31T01:03:51.467Z,-51
2016-08-31T01:04:51.481Z,-51
2016-08-31T01:05:51.469Z,-51
2016-08-31T01:06:51.425Z,-51
2016-08-31T01:07:51.414Z,-51
2016-08-31T01:08:51.435Z,-51
2016-08-31T01:09:51.442Z,-51
2016-08-31T01:10:51.639Z,-50
2016-08-31T01:11:51.452Z,-49
2016-08-31T01:12:51.465Z,-50
2016-08-31T01:13:51.543Z,-46
2016-08-31T01:14:51.522Z,-49
2016-08-31T01:15:51.512Z,-49
2016-08-31T01:16:51.519Z,-49
2016-08-31T01:17:51.482Z,-50
2016-08-31T01:18:51.489Z,-51
2016-08-31T01:19:51.523Z,-50
2016-08-31T01:20:51.516Z,-50
2016-08-31T01:21:51.499Z,-51
2016-08-31T01:22:51.502Z,-50
2016-08-31T01:23:51.512Z,-50
2016-08-31T01:24:51.502Z,-50
2016-08-31T01:25:51.704Z,-50
2016-08-31T01:26:51.453Z,-50
2016-08-31T01:27:51.452Z,-50
2016-08-31T01:28:51.459Z,-50
2016-08-31T01:29:51.459Z,-50
2016-08-31T01:30:51.496Z,-50
2016-08-31T01:31:51.685Z,-50
2016-08-31T01:32:51.470Z,-49
2016-08-31T01:33:51.456Z,-49
2016-08-31T01:34:51.504Z,-49
2016-08-31T01:35:51.500Z,-49
2016-08-31T01:36:51.471Z,-49
2016-08-31T01:37:51.536Z,-49
2016-08-31T01:38:51.518Z,-49
2016-08-31T01:39:51.517Z,-49
2016-08-31T01:40:51.550Z,-49
2016-08-31T01:41:51.530Z,-51
2016-08-31T01:42:51.458Z,-49
2016-08-31T01:43:51.515Z,-49
2016-08-31T01:44:51.501Z,-49
2016-08-31T01:45:51.472Z,-49
2016-08-31T01:46:51.469Z,-47
2016-08-31T01:47:51.564Z,-51
2016-08-31T01:48:51.515Z,-51
2016-08-31T01:49:51.752Z,-51
2016-08-31T01:50:51.502Z,-49
2016-08-31T01:51:51.529Z,-50
2016-08-31T01:52:51.621Z,-49
2016-08-31T01:53:51.490Z,-50
2016-08-31T01:54:51.543Z,-50
2016-08-31T01:55:51.778Z,-51
2016-08-31T01:56:51.477Z,-51
2016-08-31T01:57:51.531Z,-50
2016-08-31T01:58:51.530Z,-50
2016-08-31T01:59:52.159Z,-51
2016-08-31T02:00:51.522Z,-50
2016-08-31T02:01:51.534Z,-52
2016-08-31T02:02:51.535Z,-52
2016-08-31T02:03:51.542Z,-52
2016-08-31T02:04:51.535Z,-51
2016-08-31T02:05:51.534Z,-48
2016-08-31T02:06:51.489Z,-48
2016-08-31T02:07:51.801Z,-49
2016-08-31T02:08:51.551Z,-49
2016-08-31T02:09:51.501Z,-49
2016-08-31T02:10:51.516Z,-51
2016-08-31T02:11:51.497Z,-51
2016-08-31T02:12:51.517Z,-51
2016-08-31T02:13:52.176Z,-51
2016-08-31T02:14:51.472Z,-51
2016-08-31T02:15:51.485Z,-51
2016-08-31T02:16:52.305Z,-52
2016-08-31T02:17:51.505Z,-54
2016-08-31T02:18:51.515Z,-51
2016-08-31T02:19:51.519Z,-53
2016-08-31T02:20:51.483Z,-52
2016-08-31T02:21:51.520Z,-53
2016-08-31T02:22:51.729Z,-52
2016-08-31T02:23:51.487Z,-52
2016-08-31T02:24:51.549Z,-52
2016-08-31T02:25:51.576Z,-52
2016-08-31T02:26:51.550Z,-53
2016-08-31T02:27:51.865Z,-52
2016-08-31T02:28:51.507Z,-54
2016-08-31T02:29:51.607Z,-53
2016-08-31T02:30:51.493Z,-53
2016-08-31T02:31:51.548Z,-49
2016-08-31T02:32:51.537Z,-50
2016-08-31T02:33:51.510Z,-51
2016-08-31T02:34:51.549Z,-52
2016-08-31T02:35:51.519Z,-51
2016-08-31T02:36:51.502Z,-50
2016-08-31T02:37:51.517Z,-50
2016-08-31T02:38:51.563Z,-50
2016-08-31T02:39:51.566Z,-49
2016-08-31T02:40:51.558Z,-51
2016-08-31T02:41:51.636Z,-51
2016-08-31T02:42:51.537Z,-49
2016-08-31T02:43:51.940Z,-51
2016-08-31T02:44:51.578Z,-51
2016-08-31T02:45:51.555Z,-51
2016-08-31T02:46:51.525Z,-51
2016-08-31T02:47:51.503Z,-50
2016-08-31T02:48:51.503Z,-51
2016-08-31T02:49:52.241Z,-51
2016-08-31T02:50:51.563Z,-50
2016-08-31T02:51:51.522Z,-50
2016-08-31T02:52:51.516Z,-52
2016-08-31T02:53:51.547Z,-53
2016-08-31T02:54:51.556Z,-51
2016-08-31T02:55:51.869Z,-51
2016-08-31T02:56:51.562Z,-50
2016-08-31T02:57:51.549Z,-50
2016-08-31T02:58:51.718Z,-49
2016-08-31T02:59:51.550Z,-49
2016-08-31T03:00:51.534Z,-49
2016-08-31T03:01:51.760Z,-50
2016-08-31T03:02:51.540Z,-50
2016-08-31T03:03:51.533Z,-52
2016-08-31T03:04:51.566Z,-51
2016-08-31T03:05:51.551Z,-51
2016-08-31T03:06:51.607Z,-51
2016-08-31T03:07:51.804Z,-50
2016-08-31T03:08:51.559Z,-50
2016-08-31T03:09:51.534Z,-52
2016-08-31T03:10:51.579Z,-50
2016-08-31T03:11:51.539Z,-51
2016-08-31T03:12:51.562Z,-49
2016-08-31T03:13:51.539Z,-46
2016-08-31T03:14:51.551Z,-50
2016-08-31T03:15:51.593Z,-50
2016-08-31T03:16:51.631Z,-50
2016-08-31T03:17:51.594Z,-50
2016-08-31T03:18:51.533Z,-50
2016-08-31T03:19:51.944Z,-49
2016-08-31T03:20:51.575Z,-49
2016-08-31T03:21:51.593Z,-49
2016-08-31T03:22:51.570Z,-50
2016-08-31T03:23:51.579Z,-49
2016-08-31T03:24:51.590Z,-49
2016-08-31T03:25:51.912Z,-50
2016-08-31T03:26:51.560Z,-51
2016-08-31T03:27:51.595Z,-50
2016-08-31T03:28:51.659Z,-50
2016-08-31T03:29:51.640Z,-49
2016-08-31T03:30:51.596Z,-49
2016-08-31T03:31:51.709Z,-52
2016-08-31T03:32:51.584Z,-50
2016-08-31T03:33:51.575Z,-49
2016-08-31T03:34:51.549Z,-49
2016-08-31T03:35:51.586Z,-49
2016-08-31T03:36:51.682Z,-49
2016-08-31T03:37:51.535Z,-49
2016-08-31T03:38:51.561Z,-49
2016-08-31T03:39:51.568Z,-48
2016-08-31T03:40:51.559Z,-49
2016-08-31T03:41:51.627Z,-50
2016-08-31T03:42:51.572Z,-50
2016-08-31T03:43:51.597Z,-50
2016-08-31T03:44:51.569Z,-51
2016-08-31T03:45:51.550Z,-50
2016-08-31T03:46:51.585Z,-50
2016-08-31T03:47:51.580Z,-48
2016-08-31T03:48:51.570Z,-50
2016-08-31T03:49:51.606Z,-52
2016-08-31T03:50:51.597Z,-51
2016-08-31T03:51:51.562Z,-50
2016-08-31T03:52:51.595Z,-51
2016-08-31T03:53:51.610Z,-51
2016-08-31T03:54:51.567Z,-50
2016-08-31T03:55:51.602Z,-51
2016-08-31T03:56:51.609Z,-51
2016-08-31T03:57:51.631Z,-51
2016-08-31T03:58:51.583Z,-52
2016-08-31T03:59:51.587Z,-52
2016-08-31T04:00:51.690Z,-53
2016-08-31T04:01:51.599Z,-52
2016-08-31T04:02:51.596Z,-52
2016-08-31T04:03:51.598Z,-52
2016-08-31T04:04:51.611Z,-51
2016-08-31T04:05:51.550Z,-50
2016-08-31T04:06:51.957Z,-51
2016-08-31T04:07:51.598Z,-51
2016-08-31T04:08:51.614Z,-51
2016-08-31T04:09:51.641Z,-51
2016-08-31T04:10:51.590Z,-51
2016-08-31T04:11:51.640Z,-50
2016-08-31T04:12:51.600Z,-50
2016-08-31T04:13:51.610Z,-50
2016-08-31T04:14:51.598Z,-50
2016-08-31T04:15:51.590Z,-47
2016-08-31T04:16:51.626Z,-51
2016-08-31T04:17:51.647Z,-49
2016-08-31T04:18:51.640Z,-47
2016-08-31T04:19:51.587Z,-49
2016-08-31T04:20:51.611Z,-48
2016-08-31T04:21:51.603Z,-49
2016-08-31T04:22:51.613Z,-50
2016-08-31T04:23:51.618Z,-50
2016-08-31T04:24:51.622Z,-51
2016-08-31T04:25:51.610Z,-50
2016-08-31T04:26:51.654Z,-50
2016-08-31T04:27:51.597Z,-50
2016-08-31T04:28:51.646Z,-49
2016-08-31T04:29:51.595Z,-49
2016-08-31T04:30:51.602Z,-49
2016-08-31T04:31:51.583Z,-50
2016-08-31T04:32:51.604Z,-50
2016-08-31T04:33:51.590Z,-50
2016-08-31T04:34:51.642Z,-50
2016-08-31T04:35:51.619Z,-50
2016-08-31T04:36:51.736Z,-49
2016-08-31T04:37:51.598Z,-50
2016-08-31T04:38:51.588Z,-50
2016-08-31T04:39:51.610Z,-50
2016-08-31T04:40:51.601Z,-50
2016-08-31T04:41:51.682Z,-48
2016-08-31T04:42:51.643Z,-49
2016-08-31T04:43:51.633Z,-46
2016-08-31T04:44:51.615Z,-49
2016-08-31T04:45:51.559Z,-50
2016-08-31T04:46:51.655Z,-49
2016-08-31T04:47:51.631Z,-49
2016-08-31T04:48:51.629Z,-49
2016-08-31T04:49:51.615Z,-48
2016-08-31T04:50:51.633Z,-47
2016-08-31T04:51:51.629Z,-49
2016-08-31T04:52:51.706Z,-48
2016-08-31T04:53:51.658Z,-48
2016-08-31T04:54:51.604Z,-49
2016-08-31T04:55:51.699Z,-50
2016-08-31T04:56:51.630Z,-49
2016-08-31T04:57:51.697Z,-49
2016-08-31T04:58:52.751Z,-50
2016-08-31T04:59:51.645Z,-49
2016-08-31T05:00:51.661Z,-49
2016-08-31T05:01:51.738Z,-49
2016-08-31T05:02:51.813Z,-49
2016-08-31T05:03:51.674Z,-49
2016-08-31T05:04:51.703Z,-49
2016-08-31T05:05:51.605Z,-48
2016-08-31T05:06:51.643Z,-49
2016-08-31T05:07:51.751Z,-49
2016-08-31T05:08:51.610Z,-49
2016-08-31T05:09:51.630Z,-48
2016-08-31T05:10:51.614Z,-50
2016-08-31T05:11:51.616Z,-49
2016-08-31T05:12:51.632Z,-50
2016-08-31T05:13:51.713Z,-50
2016-08-31T05:14:51.651Z,-51
2016-08-31T05:15:51.614Z,-50
2016-08-31T05:16:51.660Z,-50
2016-08-31T05:17:51.676Z,-51
2016-08-31T05:18:51.605Z,-51
2016-08-31T05:19:51.934Z,-51
2016-08-31T05:20:51.649Z,-51
2016-08-31T05:21:51.627Z,-48
2016-08-31T05:22:51.738Z,-48
2016-08-31T05:23:51.635Z,-49
2016-08-31T05:24:51.676Z,-48
2016-08-31T05:25:51.721Z,-50
2016-08-31T05:26:51.646Z,-48
2016-08-31T05:27:51.644Z,-46
2016-08-31T05:28:52.791Z,-51
2016-08-31T05:29:51.658Z,-51
2016-08-31T05:30:51.650Z,-50
2016-08-31T05:31:51.689Z,-50
2016-08-31T05:32:51.646Z,-50
2016-08-31T05:33:51.647Z,-51
2016-08-31T05:34:51.765Z,-51
2016-08-31T05:35:51.948Z,-48
2016-08-31T05:36:51.664Z,-50
2016-08-31T05:37:51.665Z,-51
2016-08-31T05:38:51.662Z,-51
2016-08-31T05:39:51.666Z,-52
2016-08-31T05:40:51.671Z,-52
2016-08-31T05:41:51.691Z,-52
2016-08-31T05:42:51.684Z,-51
2016-08-31T05:43:51.677Z,-51
2016-08-31T05:44:51.677Z,-52
2016-08-31T05:45:51.677Z,-52
2016-08-31T05:46:51.658Z,-51
2016-08-31T05:47:51.664Z,-51
2016-08-31T05:48:51.696Z,-50
2016-08-31T05:49:51.694Z,-52
2016-08-31T05:50:51.665Z,-51
2016-08-31T05:51:51.684Z,-51
2016-08-31T05:52:51.665Z,-51
2016-08-31T05:53:51.681Z,-51
2016-08-31T05:54:51.693Z,-52
2016-08-31T05:55:51.664Z,-51
2016-08-31T05:56:51.723Z,-49
2016-08-31T05:57:51.645Z,-49
2016-08-31T05:58:51.828Z,-50
2016-08-31T05:59:51.654Z,-53
2016-08-31T06:00:52.292Z,-51
2016-08-31T06:01:51.666Z,-51
2016-08-31T06:02:51.663Z,-49
2016-08-31T06:03:51.826Z,-49
2016-08-31T06:04:51.729Z,-49
2016-08-31T06:05:51.676Z,-49
2016-08-31T06:06:51.667Z,-49
2016-08-31T06:07:51.662Z,-49
2016-08-31T06:08:51.905Z,-50
2016-08-31T06:09:51.694Z,-50
2016-08-31T06:10:51.662Z,-51
2016-08-31T06:11:51.709Z,-50
2016-08-31T06:12:51.741Z,-47
2016-08-31T06:13:51.699Z,-48
2016-08-31T06:14:51.679Z,-49
2016-08-31T06:15:51.679Z,-49
2016-08-31T06:16:51.776Z,-46
2016-08-31T06:17:51.782Z,-50
2016-08-31T06:18:51.728Z,-49
2016-08-31T06:19:51.774Z,-49
2016-08-31T06:20:51.706Z,-47
2016-08-31T06:21:51.725Z,-49
2016-08-31T06:22:51.726Z,-49
2016-08-31T06:23:51.723Z,-49
2016-08-31T06:24:52.689Z,-49
2016-08-31T06:25:51.685Z,-50
2016-08-31T06:26:51.738Z,-50
2016-08-31T06:27:51.670Z,-50
2016-08-31T06:28:51.713Z,-50
2016-08-31T06:29:51.726Z,-50
2016-08-31T06:30:51.725Z,-49
2016-08-31T06:31:51.695Z,-51
2016-08-31T06:32:51.745Z,-50
2016-08-31T06:33:51.929Z,-50
2016-08-31T06:34:51.669Z,-50
2016-08-31T06:35:51.695Z,-50
2016-08-31T06:36:51.715Z,-49
2016-08-31T06:37:51.706Z,-49
2016-08-31T06:38:51.698Z,-48
2016-08-31T06:39:51.711Z,-49
2016-08-31T06:40:51.698Z,-49
2016-08-31T06:41:51.717Z,-47
2016-08-31T06:42:51.726Z,-49
2016-08-31T06:43:51.894Z,-50
2016-08-31T06:44:51.722Z,-48
2016-08-31T06:45:51.802Z,-46
2016-08-31T06:46:51.723Z,-49
2016-08-31T06:47:51.757Z,-48
2016-08-31T06:48:51.734Z,-50
2016-08-31T06:49:51.725Z,-50
2016-08-31T06:50:51.709Z,-51
2016-08-31T06:51:51.710Z,-48
2016-08-31T06:52:51.731Z,-49
2016-08-31T06:53:51.760Z,-50
2016-08-31T06:54:51.719Z,-51
2016-08-31T06:55:51.731Z,-51
2016-08-31T06:56:51.790Z,-51
2016-08-31T06:57:51.709Z,-50
2016-08-31T06:58:51.677Z,-51
2016-08-31T06:59:51.824Z,-51
2016-08-31T07:00:51.742Z,-51
2016-08-31T07:01:51.722Z,-51
2016-08-31T07:02:51.743Z,-50
2016-08-31T07:03:51.679Z,-48
2016-08-31T07:04:51.742Z,-48
2016-08-31T07:05:51.721Z,-47
2016-08-31T07:06:51.806Z,-49
2016-08-31T07:07:51.746Z,-49
2016-08-31T07:08:51.802Z,-49
2016-08-31T07:09:51.803Z,-48
2016-08-31T07:10:51.740Z,-49
2016-08-31T07:11:51.714Z,-50
2016-08-31T07:12:51.788Z,-53
2016-08-31T07:13:51.756Z,-52
2016-08-31T07:14:51.749Z,-51
2016-08-31T07:15:51.831Z,-53
2016-08-31T07:16:51.714Z,-53
2016-08-31T07:17:51.761Z,-52
2016-08-31T07:18:51.768Z,-54
2016-08-31T07:19:51.776Z,-52
2016-08-31T07:20:51.773Z,-52
2016-08-31T07:21:51.748Z,-51
2016-08-31T07:22:51.756Z,-52
2016-08-31T07:23:51.745Z,-51
2016-08-31T07:24:51.752Z,-51
2016-08-31T07:25:51.757Z,-53
2016-08-31T07:26:51.732Z,-53
2016-08-31T07:27:51.758Z,-52
2016-08-31T07:28:51.759Z,-52
2016-08-31T07:29:52.660Z,-52
2016-08-31T07:30:51.791Z,-52
2016-08-31T07:31:51.772Z,-51
2016-08-31T07:32:51.751Z,-52
2016-08-31T07:33:51.813Z,-52
2016-08-31T07:34:51.762Z,-52
2016-08-31T07:35:52.919Z,-53
2016-08-31T07:36:51.784Z,-52
2016-08-31T07:37:51.779Z,-52
2016-08-31T07:38:52.003Z,-53
2016-08-31T07:39:51.775Z,-50
2016-08-31T07:40:51.773Z,-50
2016-08-31T07:41:51.838Z,-51
2016-08-31T07:42:52.032Z,-52
2016-08-31T07:43:51.805Z,-50
2016-08-31T07:44:51.767Z,-52
2016-08-31T07:45:51.821Z,-52
2016-08-31T07:46:51.819Z,-55
2016-08-31T07:47:51.842Z,-52
2016-08-31T07:48:51.814Z,-51
2016-08-31T07:49:51.771Z,-51
2016-08-31T07:50:52.347Z,-52
2016-08-31T07:51:51.879Z,-51
2016-08-31T07:52:51.793Z,-49
2016-08-31T07:53:51.795Z,-50
2016-08-31T07:54:51.763Z,-51
2016-08-31T07:55:51.778Z,-49
2016-08-31T07:56:51.826Z,-50
2016-08-31T07:57:51.762Z,-50
2016-08-31T07:58:51.780Z,-50
2016-08-31T07:59:51.773Z,-51
2016-08-31T08:00:52.511Z,-55
2016-08-31T08:01:51.849Z,-50
2016-08-31T08:02:52.318Z,-50
2016-08-31T08:03:52.075Z,-50
2016-08-31T08:04:52.096Z,-52
2016-08-31T08:05:52.735Z,-50
2016-08-31T08:06:52.037Z,-50
2016-08-31T08:07:54.100Z,-51
2016-08-31T08:08:52.391Z,-50
2016-08-31T08:09:51.807Z,-50
2016-08-31T08:10:51.828Z,-50
2016-08-31T08:11:51.806Z,-55
2016-08-31T08:13:36.767Z,-53
2016-08-31T08:14:13.215Z,-52
2016-08-31T08:15:11.306Z,-53
2016-08-31T08:16:23.943Z,-56
2016-08-31T08:16:56.274Z,-55
2016-08-31T08:19:06.462Z,-49
2016-08-31T08:20:31.181Z,-54
2016-08-31T08:21:55.627Z,-55
2016-08-31T08:23:19.333Z,-54
2016-08-31T08:24:41.250Z,-52
2016-08-31T08:26:05.454Z,-52
2016-08-31T08:27:29.213Z,-51
2016-08-31T08:28:51.794Z,-51
2016-08-31T08:30:15.039Z,-51
2016-08-31T08:31:38.491Z,-53
2016-08-31T08:32:12.852Z,-54
2016-08-31T08:33:54.752Z,-53
2016-08-31T08:35:13.772Z,-52
2016-08-31T08:36:31.403Z,-52
2016-08-31T08:37:23.748Z,-54
2016-08-31T08:38:35.092Z,-54
2016-08-31T08:38:45.609Z,-55
2016-08-31T08:39:45.235Z,-51
2016-08-31T08:40:45.226Z,-53
2016-08-31T08:41:45.412Z,-55
2016-08-31T08:42:45.300Z,-54
2016-08-31T08:43:45.585Z,-54
2016-08-31T08:44:45.401Z,-53
2016-08-31T08:45:45.265Z,-55
2016-08-31T08:46:45.284Z,-56
2016-08-31T08:47:45.205Z,-53
2016-08-31T08:48:45.322Z,-53
2016-08-31T08:49:45.315Z,-54
2016-08-31T08:50:45.202Z,-53
2016-08-31T08:51:45.214Z,-55
2016-08-31T08:52:45.219Z,-55
2016-08-31T08:53:45.210Z,-56
2016-08-31T08:54:45.247Z,-55
2016-08-31T08:55:45.405Z,-53
2016-08-31T08:56:45.243Z,-54
2016-08-31T08:57:45.283Z,-55
2016-08-31T08:58:45.323Z,-53
2016-08-31T08:59:45.263Z,-56
2016-08-31T09:00:45.225Z,-55
2016-08-31T09:01:45.223Z,-53
2016-08-31T09:02:45.282Z,-52
2016-08-31T09:03:45.283Z,-52
2016-08-31T09:04:45.275Z,-53
2016-08-31T09:05:45.247Z,-52
2016-08-31T09:06:45.325Z,-53
2016-08-31T09:07:45.288Z,-50
2016-08-31T09:08:45.272Z,-50
2016-08-31T09:09:45.238Z,-49
2016-08-31T09:10:45.283Z,-50
2016-08-31T09:11:45.268Z,-50
2016-08-31T09:12:45.271Z,-51
2016-08-31T09:13:45.263Z,-51
2016-08-31T09:14:45.270Z,-49
2016-08-31T09:15:45.358Z,-53
2016-08-31T09:16:45.269Z,-53
2016-08-31T09:17:45.238Z,-53
2016-08-31T09:18:45.743Z,-55
2016-08-31T09:19:45.312Z,-51
2016-08-31T09:20:45.230Z,-54
2016-08-31T09:21:45.241Z,-54
2016-08-31T09:22:45.230Z,-55
2016-08-31T09:23:45.243Z,-55
2016-08-31T09:24:45.375Z,-55
2016-08-31T09:25:45.299Z,-55
2016-08-31T09:26:45.303Z,-55
2016-08-31T09:27:45.395Z,-53
2016-08-31T09:28:45.316Z,-56
2016-08-31T09:29:45.303Z,-55
2016-08-31T09:30:45.332Z,-54
2016-08-31T09:31:45.285Z,-54
2016-08-31T09:32:45.299Z,-54
2016-08-31T09:33:45.301Z,-55
2016-08-31T09:34:45.285Z,-54
2016-08-31T09:35:46.005Z,-54
2016-08-31T09:36:45.275Z,-55
2016-08-31T09:37:45.356Z,-54
2016-08-31T09:38:45.272Z,-56
2016-08-31T09:39:45.297Z,-56
2016-08-31T09:40:45.615Z,-56
2016-08-31T09:41:45.286Z,-55
2016-08-31T09:42:45.361Z,-54
2016-08-31T09:43:45.300Z,-54
2016-08-31T09:44:45.492Z,-53
2016-08-31T09:45:45.532Z,-53
2016-08-31T09:46:45.306Z,-53
2016-08-31T09:47:45.809Z,-56
2016-08-31T09:48:45.305Z,-54
2016-08-31T09:49:45.468Z,-53
2016-08-31T09:50:45.286Z,-52
2016-08-31T09:51:45.263Z,-53
2016-08-31T09:52:45.267Z,-53
2016-08-31T09:53:45.298Z,-53
2016-08-31T09:54:45.322Z,-55
2016-08-31T09:55:45.319Z,-53
2016-08-31T09:56:45.377Z,-54
2016-08-31T09:57:45.355Z,-51
2016-08-31T09:58:45.348Z,-54
2016-08-31T09:59:45.361Z,-53
2016-08-31T10:00:45.347Z,-53
2016-08-31T10:01:45.558Z,-54
2016-08-31T10:02:45.375Z,-53
2016-08-31T10:03:45.302Z,-51
2016-08-31T10:04:45.287Z,-51
2016-08-31T10:05:45.456Z,-53
2016-08-31T10:06:45.392Z,-53
2016-08-31T10:07:45.357Z,-51
2016-08-31T10:08:45.779Z,-52
2016-08-31T10:09:45.363Z,-51
2016-08-31T10:10:45.343Z,-53
2016-08-31T10:11:45.393Z,-51
2016-08-31T10:12:45.798Z,-52
2016-08-31T10:13:45.286Z,-53
2016-08-31T10:14:45.370Z,-53
2016-08-31T10:15:45.489Z,-52
2016-08-31T10:16:45.314Z,-52
2016-08-31T10:17:45.320Z,-51
2016-08-31T10:18:45.320Z,-53
2016-08-31T10:19:45.346Z,-52
2016-08-31T10:20:45.380Z,-55
2016-08-31T10:21:46.628Z,-53
2016-08-31T10:22:45.485Z,-55
2016-08-31T10:23:46.859Z,-53
2016-08-31T10:24:46.007Z,-53
2016-08-31T10:25:45.750Z,-54
2016-08-31T10:26:45.396Z,-55
2016-08-31T10:27:45.424Z,-56
2016-08-31T10:28:46.939Z,-56
2016-08-31T10:29:46.138Z,-55
2016-08-31T10:30:45.618Z,-58
2016-08-31T10:31:45.699Z,-56
2016-08-31T10:32:45.330Z,-55
2016-08-31T10:33:46.383Z,-52
2016-08-31T10:34:45.472Z,-56
2016-08-31T10:35:46.621Z,-57
2016-08-31T10:36:45.449Z,-55
2016-08-31T10:37:46.946Z,-52
2016-08-31T10:38:45.947Z,-53
2016-08-31T10:39:45.364Z,-53
2016-08-31T10:40:45.393Z,-54
2016-08-31T10:41:45.399Z,-53
2016-08-31T10:42:45.463Z,-54
2016-08-31T10:43:45.436Z,-52
2016-08-31T10:44:45.376Z,-54
2016-08-31T10:45:45.470Z,-52
2016-08-31T10:46:45.825Z,-55
2016-08-31T10:47:45.362Z,-53
2016-08-31T10:48:45.363Z,-55
2016-08-31T10:49:45.456Z,-56
2016-08-31T10:50:45.927Z,-55
2016-08-31T10:51:45.367Z,-57
2016-08-31T10:52:45.393Z,-53
2016-08-31T10:53:45.440Z,-51
2016-08-31T10:54:46.354Z,-52
2016-08-31T10:55:45.380Z,-53
2016-08-31T10:56:45.365Z,-53
2016-08-31T10:57:45.388Z,-51
2016-08-31T10:58:45.410Z,-54
2016-08-31T10:59:45.364Z,-54
2016-08-31T11:00:46.022Z,-52
2016-08-31T11:01:45.388Z,-53
2016-08-31T11:02:46.216Z,-54
2016-08-31T11:03:45.819Z,-52
2016-08-31T11:04:45.361Z,-50
2016-08-31T11:05:46.803Z,-53
2016-08-31T11:06:45.370Z,-54
2016-08-31T11:07:45.816Z,-53
2016-08-31T11:08:45.383Z,-52
2016-08-31T11:09:45.455Z,-52
2016-08-31T11:10:45.410Z,-53
2016-08-31T11:11:45.445Z,-53
2016-08-31T11:12:45.398Z,-53
2016-08-31T11:14:29.265Z,-51
2016-08-31T11:15:48.123Z,-52
2016-08-31T11:17:05.986Z,-50
2016-08-31T11:18:21.424Z,-52
2016-08-31T11:19:42.009Z,-52
2016-08-31T11:20:32.095Z,-52
2016-08-31T11:22:01.799Z,-52
2016-08-31T11:23:20.283Z,-52
2016-08-31T11:23:44.525Z,-53
2016-08-31T11:24:32.233Z,-51
2016-08-31T11:25:30.465Z,-55
2016-08-31T11:26:30.412Z,-52
2016-08-31T11:27:30.470Z,-53
2016-08-31T11:28:30.393Z,-54
2016-08-31T11:29:31.014Z,-52
2016-08-31T11:30:30.638Z,-53
2016-08-31T11:31:30.909Z,-53
2016-08-31T11:32:30.770Z,-51
2016-08-31T11:33:30.747Z,-50
2016-08-31T11:34:30.531Z,-51
2016-08-31T11:35:30.978Z,-50
2016-08-31T11:36:31.075Z,-51
2016-08-31T11:37:31.787Z,-54
2016-08-31T11:38:30.442Z,-51
2016-08-31T11:39:30.425Z,-48
2016-08-31T11:40:30.664Z,-51
2016-08-31T11:41:30.451Z,-50
2016-08-31T11:42:31.606Z,-50
2016-08-31T11:43:30.487Z,-47
2016-08-31T11:44:30.793Z,-53
2016-08-31T11:45:30.412Z,-50
2016-08-31T11:46:30.413Z,-48
2016-08-31T11:47:31.776Z,-52
2016-08-31T11:48:31.028Z,-51
2016-08-31T11:49:30.626Z,-50
2016-08-31T11:50:30.740Z,-50
2016-08-31T11:51:30.967Z,-50
2016-08-31T11:52:30.956Z,-49
2016-08-31T11:53:31.377Z,-49
2016-08-31T11:54:30.967Z,-50
2016-08-31T11:55:31.191Z,-50
2016-08-31T11:56:30.512Z,-51
2016-08-31T11:57:31.454Z,-52
2016-08-31T11:58:30.671Z,-53
2016-08-31T11:59:31.486Z,-54
2016-08-31T12:00:30.448Z,-52
2016-08-31T12:01:31.205Z,-51
2016-08-31T12:02:31.445Z,-48
2016-08-31T12:03:30.905Z,-51
2016-08-31T12:04:30.641Z,-53
2016-08-31T12:05:30.879Z,-52
2016-08-31T12:06:30.449Z,-52
2016-08-31T12:07:31.189Z,-52
2016-08-31T12:08:30.550Z,-51
2016-08-31T12:09:30.493Z,-52
2016-08-31T12:10:30.988Z,-48
2016-08-31T12:11:30.660Z,-48
2016-08-31T12:12:30.567Z,-49
2016-08-31T12:13:30.584Z,-47
2016-08-31T12:14:30.608Z,-50
2016-08-31T12:15:30.462Z,-52
2016-08-31T12:16:30.546Z,-51
2016-08-31T12:17:30.961Z,-52
2016-08-31T12:18:30.439Z,-50
2016-08-31T12:19:30.826Z,-56
2016-08-31T12:20:30.545Z,-55
2016-08-31T12:21:30.539Z,-54
2016-08-31T12:22:30.483Z,-54
2016-08-31T12:23:30.490Z,-53
2016-08-31T12:24:30.563Z,-55
2016-08-31T12:25:30.568Z,-57
2016-08-31T12:26:30.808Z,-56
2016-08-31T12:27:30.806Z,-54
2016-08-31T12:28:32.175Z,-54
2016-08-31T12:29:30.508Z,-51
2016-08-31T12:30:31.616Z,-51
2016-08-31T12:31:30.497Z,-50
2016-08-31T12:32:30.581Z,-50
2016-08-31T12:33:30.510Z,-53
2016-08-31T12:34:30.489Z,-54
2016-08-31T12:35:30.558Z,-49
2016-08-31T12:36:30.525Z,-52
2016-08-31T12:37:30.491Z,-50
2016-08-31T12:38:30.479Z,-50
2016-08-31T12:39:30.566Z,-49
2016-08-31T12:40:30.560Z,-50
2016-08-31T12:41:31.339Z,-53
2016-08-31T12:42:30.522Z,-54
2016-08-31T12:43:30.649Z,-54
2016-08-31T12:44:30.917Z,-55
2016-08-31T12:45:31.904Z,-52
2016-08-31T12:46:31.364Z,-55
2016-08-31T12:47:30.478Z,-56
2016-08-31T12:48:30.528Z,-52
2016-08-31T12:49:30.522Z,-53
2016-08-31T12:50:30.691Z,-54
2016-08-31T12:51:31.393Z,-54
2016-08-31T12:52:30.555Z,-54
2016-08-31T12:53:30.603Z,-55
2016-08-31T12:54:36.335Z,-50
2016-08-31T12:55:54.794Z,-50
2016-08-31T12:56:38.213Z,-53
2016-08-31T12:57:31.441Z,-54
2016-08-31T12:58:30.578Z,-55
2016-08-31T12:59:30.562Z,-56
2016-08-31T13:00:30.672Z,-56
2016-08-31T13:01:30.560Z,-54
2016-08-31T13:02:30.717Z,-54
2016-08-31T13:03:30.689Z,-52
2016-08-31T13:04:30.685Z,-51
2016-08-31T13:05:30.587Z,-48
2016-08-31T13:06:30.513Z,-51
2016-08-31T13:07:30.525Z,-53
2016-08-31T13:08:30.494Z,-51
2016-08-31T13:09:30.480Z,-51
2016-08-31T13:10:30.607Z,-52
2016-08-31T13:11:31.633Z,-48
2016-08-31T13:12:30.521Z,-51
2016-08-31T13:13:31.226Z,-53
2016-08-31T13:14:30.591Z,-52
2016-08-31T13:15:33.434Z,-51
2016-08-31T13:16:30.608Z,-52
2016-08-31T13:17:30.543Z,-52
2016-08-31T13:18:30.620Z,-53
2016-08-31T13:19:30.642Z,-53
2016-08-31T13:20:30.839Z,-54
2016-08-31T13:21:30.654Z,-51
2016-08-31T13:22:30.822Z,-54
2016-08-31T13:23:30.515Z,-51
2016-08-31T13:24:30.907Z,-52
2016-08-31T13:25:30.551Z,-54
2016-08-31T13:26:30.546Z,-55
2016-08-31T13:27:30.796Z,-55
2016-08-31T13:28:30.940Z,-54
2016-08-31T13:29:30.710Z,-57
2016-08-31T13:30:30.729Z,-53
2016-08-31T13:31:30.532Z,-54
2016-08-31T13:32:31.501Z,-53
2016-08-31T13:33:30.819Z,-60
2016-08-31T13:34:30.796Z,-59
2016-08-31T13:35:32.682Z,-53
2016-08-31T13:36:30.573Z,-53
2016-08-31T13:37:30.554Z,-54
2016-08-31T13:38:31.700Z,-52
2016-08-31T13:39:31.214Z,-53
2016-08-31T13:40:30.892Z,-50
2016-08-31T13:41:30.777Z,-53
2016-08-31T13:42:30.787Z,-53
2016-08-31T13:43:30.749Z,-51
2016-08-31T13:44:31.602Z,-53
2016-08-31T13:45:31.625Z,-54
2016-08-31T13:46:30.561Z,-54
2016-08-31T13:47:30.630Z,-54
2016-08-31T13:48:30.564Z,-54
2016-08-31T13:49:30.641Z,-55
2016-08-31T13:50:30.546Z,-53
2016-08-31T13:51:30.583Z,-55
2016-08-31T13:52:30.589Z,-59
2016-08-31T13:53:30.784Z,-62